Time;durP1;ratioP1;P1;durP2;ratioP2;P2;SDS_P1;SDS_P2;PMS_P1;PMS_P2;Temp;Humidity;BMP_temperature;BMP_pressure;BME280_temperature;BME280_humidity;BME280_pressure;Samples;Min_cycle;Max_cycle;Signal;HPM_P1;HPM_P2
2022/05/13 00:01:50;;;;;;;6.38;0.98;;;;;;;;;;5046657;28;20263;-64
2022/05/13 00:04:15;;;;;;;4.78;1.20;;;;;;;;;;5042628;28;20840;-64
2022/05/13 00:06:40;;;;;;;5.68;1.20;;;;;;;;;;5053338;28;20265;-64
2022/05/13 00:09:06;;;;;;;4.68;1.00;;;;;;;;;;5052741;28;20235;-64
2022/05/13 00:11:31;;;;;;;6.72;1.20;;;;;;;;;;5053349;28;20261;-64
2022/05/13 00:13:56;;;;;;;5.10;1.00;;;;;;;;;;5027679;28;20670;-63
2022/05/13 00:16:22;;;;;;;6.53;1.30;;;;;;;;;;5032571;28;20548;-64
2022/05/13 00:18:47;;;;;;;6.25;1.70;;;;;;;;;;5032962;28;20211;-64
2022/05/13 00:21:12;;;;;;;3.85;1.00;;;;;;;;;;5032748;28;20216;-64
2022/05/13 00:23:37;;;;;;;7.13;1.45;;;;;;;;;;5032884;28;20354;-64
2022/05/13 00:26:03;;;;;;;6.00;1.30;;;;;;;;;;5033398;28;20234;-64
2022/05/13 00:28:28;;;;;;;6.20;1.20;;;;;;;;;;5032887;28;20686;-64
2022/05/13 00:30:53;;;;;;;4.90;1.25;;;;;;;;;;5032566;28;20261;-64
2022/05/13 00:33:19;;;;;;;4.05;1.33;;;;;;;;;;5032536;28;20215;-64
2022/05/13 00:35:44;;;;;;;5.00;1.30;;;;;;;;;;5032856;28;20287;-64
2022/05/13 00:38:09;;;;;;;5.68;1.20;;;;;;;;;;5031965;28;20204;-64
2022/05/13 00:40:35;;;;;;;5.47;1.40;;;;;;;;;;5032150;28;20639;-63
2022/05/13 00:43:03;;;;;;;5.93;1.35;;;;;;;;;;5032795;28;20218;-64
2022/05/13 00:45:28;;;;;;;6.35;1.30;;;;;;;;;;5032219;28;20246;-64
2022/05/13 00:47:54;;;;;;;6.43;1.60;;;;;;;;;;5032355;28;20227;-64
2022/05/13 00:50:19;;;;;;;4.55;1.20;;;;;;;;;;5031832;28;20671;-64
2022/05/13 00:52:45;;;;;;;4.45;1.27;;;;;;;;;;5032492;28;20215;-64
2022/05/13 00:55:12;;;;;;;6.13;1.13;;;;;;;;;;5032119;28;20208;-64
2022/05/13 00:57:38;;;;;;;6.57;1.48;;;;;;;;;;5023639;28;20228;-64
2022/05/13 01:00:04;;;;;;;6.13;1.42;;;;;;;;;;5018813;28;20252;-63
2022/05/13 01:02:30;;;;;;;6.93;1.40;;;;;;;;;;5018873;28;20208;-62
2022/05/13 01:04:55;;;;;;;5.95;1.38;;;;;;;;;;5016404;28;20228;-62
2022/05/13 01:07:21;;;;;;;5.05;1.27;;;;;;;;;;5002875;28;20687;-62
2022/05/13 01:09:48;;;;;;;6.07;1.30;;;;;;;;;;5002981;28;20224;-62
2022/05/13 01:12:14;;;;;;;5.53;1.40;;;;;;;;;;5003978;28;20223;-62
2022/05/13 01:14:46;;;;;;;7.63;1.70;;;;;;;;;;5003096;28;20266;-62
2022/05/13 01:20:05;;;;;;;6.55;1.35;;;;;;;;;;4993647;28;20219;-62
2022/05/13 01:22:35;;;;;;;8.45;1.50;;;;;;;;;;4995872;28;20208;-62
2022/05/13 01:25:00;;;;;;;8.35;1.60;;;;;;;;;;4999215;28;21019;-62
2022/05/13 01:27:26;;;;;;;6.18;1.27;;;;;;;;;;5020860;28;20319;-62
2022/05/13 01:29:51;;;;;;;4.93;1.40;;;;;;;;;;5022268;28;20689;-63
2022/05/13 01:32:17;;;;;;;5.93;1.35;;;;;;;;;;5004469;28;20716;-62
2022/05/13 01:34:42;;;;;;;7.63;1.42;;;;;;;;;;5002695;28;20224;-62
2022/05/13 01:39:55;;;;;;;7.97;2.00;;;;;;;;;;5002132;28;20224;-63
2022/05/13 01:42:20;;;;;;;5.15;1.30;;;;;;;;;;4996861;28;20749;-63
2022/05/13 01:44:45;;;;;;;6.57;1.48;;;;;;;;;;4994621;28;20306;-62
2022/05/13 01:47:10;;;;;;;6.00;1.50;;;;;;;;;;4994775;28;20275;-62
2022/05/13 01:49:36;;;;;;;8.73;1.85;;;;;;;;;;5000466;28;20230;-63
2022/05/13 01:52:01;;;;;;;7.40;1.60;;;;;;;;;;5001615;28;20215;-63
2022/05/13 01:54:26;;;;;;;7.85;1.63;;;;;;;;;;5002663;28;20682;-63
2022/05/13 01:56:51;;;;;;;7.43;1.50;;;;;;;;;;5008558;28;20235;-63
2022/05/13 01:59:18;;;;;;;8.48;1.65;;;;;;;;;;5011141;28;20228;-63
2022/05/13 02:01:43;;;;;;;6.60;1.63;;;;;;;;;;5028296;28;20211;-63
2022/05/13 02:04:09;;;;;;;7.43;1.85;;;;;;;;;;5018601;28;20694;-63
2022/05/13 02:06:34;;;;;;;6.28;1.58;;;;;;;;;;5014515;28;20214;-62
2022/05/13 02:08:59;;;;;;;8.35;1.80;;;;;;;;;;5013354;28;20231;-62
2022/05/13 02:11:26;;;;;;;8.15;1.80;;;;;;;;;;5029379;28;20215;-62
2022/05/13 02:13:52;;;;;;;6.78;1.85;;;;;;;;;;5004727;28;20203;-62
2022/05/13 02:16:17;;;;;;;8.48;1.77;;;;;;;;;;5020735;28;20697;-62
2022/05/13 02:18:43;;;;;;;10.32;1.70;;;;;;;;;;5022075;28;20294;-63
2022/05/13 02:21:08;;;;;;;8.30;1.65;;;;;;;;;;5020814;28;20237;-62
2022/05/13 02:23:33;;;;;;;9.27;1.90;;;;;;;;;;5021862;28;20327;-63
2022/05/13 02:26:00;;;;;;;6.22;1.70;;;;;;;;;;5020473;28;20306;-62
2022/05/13 02:28:25;;;;;;;5.82;1.70;;;;;;;;;;5013782;28;20224;-62
2022/05/13 02:30:50;;;;;;;8.05;1.90;;;;;;;;;;5013224;28;20629;-62
2022/05/13 02:33:16;;;;;;;6.72;1.80;;;;;;;;;;5015294;28;20219;-62
2022/05/13 02:35:41;;;;;;;5.97;1.80;;;;;;;;;;5023689;28;20262;-62
2022/05/13 02:38:06;;;;;;;7.57;1.70;;;;;;;;;;5020902;28;20208;-62
2022/05/13 02:43:15;;;;;;;11.25;2.10;;;;;;;;;;5029392;28;20226;-62
2022/05/13 02:45:40;;;;;;;6.18;1.80;;;;;;;;;;5021220;28;20203;-62
2022/05/13 02:48:06;;;;;;;8.85;2.13;;;;;;;;;;5029275;28;21235;-62
2022/05/13 02:50:31;;;;;;;8.60;1.90;;;;;;;;;;4997142;28;20306;-62
2022/05/13 02:52:58;;;;;;;10.43;2.28;;;;;;;;;;5013739;28;20208;-62
2022/05/13 02:55:23;;;;;;;11.38;1.80;;;;;;;;;;5012967;28;20231;-62
2022/05/13 02:57:48;;;;;;;10.02;1.77;;;;;;;;;;5020685;28;20580;-62
2022/05/13 03:00:14;;;;;;;10.82;2.55;;;;;;;;;;5020329;28;20746;-62
2022/05/13 03:02:39;;;;;;;7.95;2.05;;;;;;;;;;5034066;28;20590;-62
2022/05/13 03:05:04;;;;;;;10.95;2.35;;;;;;;;;;5024353;28;20230;-62
2022/05/13 03:07:30;;;;;;;9.68;2.30;;;;;;;;;;5025507;28;20928;-62
2022/05/13 03:09:55;;;;;;;10.15;2.25;;;;;;;;;;5025337;28;20780;-62
2022/05/13 03:12:20;;;;;;;9.63;2.78;;;;;;;;;;5019101;28;20254;-63
2022/05/13 03:14:45;;;;;;;10.95;2.80;;;;;;;;;;5018755;28;20866;-62
2022/05/13 03:17:10;;;;;;;12.88;2.90;;;;;;;;;;5016528;28;20230;-62
2022/05/13 03:19:36;;;;;;;11.50;2.70;;;;;;;;;;5020569;28;20227;-62
2022/05/13 03:22:01;;;;;;;10.55;2.80;;;;;;;;;;5024931;28;20678;-62
2022/05/13 03:24:27;;;;;;;15.05;3.03;;;;;;;;;;5025248;28;20274;-62
2022/05/13 03:26:52;;;;;;;9.13;2.70;;;;;;;;;;5024889;28;20698;-63
2022/05/13 03:29:20;;;;;;;13.85;2.90;;;;;;;;;;5024141;28;20226;-62
2022/05/13 03:31:45;;;;;;;10.30;3.00;;;;;;;;;;5044336;28;20218;-62
2022/05/13 03:34:11;;;;;;;9.52;2.97;;;;;;;;;;5023210;28;20630;-62
2022/05/13 03:36:36;;;;;;;13.27;3.85;;;;;;;;;;5014794;28;20242;-62
2022/05/13 03:39:01;;;;;;;11.90;3.22;;;;;;;;;;5017138;28;20235;-62
2022/05/13 03:41:26;;;;;;;14.45;3.35;;;;;;;;;;5018349;28;20673;-62
2022/05/13 03:43:52;;;;;;;12.00;3.38;;;;;;;;;;5024681;28;20267;-62
2022/05/13 03:46:17;;;;;;;11.88;3.47;;;;;;;;;;5024106;28;20686;-62
2022/05/13 03:48:43;;;;;;;16.63;3.88;;;;;;;;;;5024830;28;20585;-62
2022/05/13 03:51:08;;;;;;;14.30;3.80;;;;;;;;;;5025617;28;20219;-62
2022/05/13 03:53:33;;;;;;;13.90;3.60;;;;;;;;;;5024992;28;20235;-62
2022/05/13 03:55:59;;;;;;;15.30;3.97;;;;;;;;;;5023822;28;20219;-62
2022/05/13 03:58:24;;;;;;;13.68;4.03;;;;;;;;;;5014641;28;20265;-62
2022/05/13 04:00:51;;;;;;;13.70;4.28;;;;;;;;;;5016132;28;20212;-62
2022/05/13 04:03:16;;;;;;;12.95;4.13;;;;;;;;;;5016588;28;20306;-62
2022/05/13 04:11:09;;;;;;;12.43;4.18;;;;;;;;;;5043235;28;20576;-62
2022/05/13 04:16:18;;;;;;;21.45;5.45;;;;;;;;;;5023623;28;20745;-62
2022/05/13 04:18:44;;;;;;;12.23;4.10;;;;;;;;;;5023301;28;20674;-62
2022/05/13 04:21:17;;;;;;;14.68;4.57;;;;;;;;;;4998106;28;20218;-62
2022/05/13 04:23:43;;;;;;;14.98;4.82;;;;;;;;;;5028213;28;20211;-62
2022/05/13 04:26:12;;;;;;;13.95;3.95;;;;;;;;;;5016306;28;20208;-62
2022/05/13 04:28:37;;;;;;;14.10;4.78;;;;;;;;;;5025533;28;20802;-62
2022/05/13 04:31:02;;;;;;;13.20;4.80;;;;;;;;;;5023145;28;20306;-62
2022/05/13 04:33:28;;;;;;;16.23;4.82;;;;;;;;;;5024283;28;20199;-62
2022/05/13 04:35:53;;;;;;;13.25;4.43;;;;;;;;;;5023759;28;20314;-62
2022/05/13 04:38:18;;;;;;;15.88;5.05;;;;;;;;;;5022287;28;20625;-62
2022/05/13 04:40:43;;;;;;;17.80;5.63;;;;;;;;;;5023673;28;20227;-62
2022/05/13 04:43:09;;;;;;;16.23;4.50;;;;;;;;;;5016894;28;20208;-62
2022/05/13 04:45:34;;;;;;;14.32;4.88;;;;;;;;;;5015460;28;20532;-62
2022/05/13 04:48:16;;;;;;;16.55;5.05;;;;;;;;;;4997655;28;20331;-62
2022/05/13 04:50:50;;;;;;;15.32;4.80;;;;;;;;;;5021637;28;20295;-61
2022/05/13 04:53:16;;;;;;;15.55;5.55;;;;;;;;;;5041714;28;20419;-61
2022/05/13 04:55:41;;;;;;;18.58;5.47;;;;;;;;;;5024872;28;20218;-63
2022/05/13 04:58:07;;;;;;;19.17;5.00;;;;;;;;;;5041744;28;20207;-61
2022/05/13 05:00:32;;;;;;;19.38;5.47;;;;;;;;;;5024059;28;20238;-61
2022/05/13 05:02:58;;;;;;;15.48;4.97;;;;;;;;;;5023192;28;20539;-61
2022/05/13 05:05:23;;;;;;;20.33;6.05;;;;;;;;;;5017230;28;20315;-61
2022/05/13 05:07:48;;;;;;;18.35;5.47;;;;;;;;;;5015426;28;20215;-61
2022/05/13 05:10:14;;;;;;;14.95;4.55;;;;;;;;;;4998834;28;20219;-61
2022/05/13 05:12:39;;;;;;;16.92;6.10;;;;;;;;;;5019585;28;20203;-61
2022/05/13 05:15:05;;;;;;;19.30;5.65;;;;;;;;;;5023191;28;20208;-61
2022/05/13 05:17:30;;;;;;;17.45;5.32;;;;;;;;;;5022848;28;20294;-61
2022/05/13 05:19:55;;;;;;;19.63;6.10;;;;;;;;;;5022621;28;20219;-61
2022/05/13 05:22:21;;;;;;;19.70;5.85;;;;;;;;;;5021875;28;20215;-61
2022/05/13 05:24:46;;;;;;;15.38;5.28;;;;;;;;;;5022933;28;20219;-60
2022/05/13 05:27:12;;;;;;;15.95;5.57;;;;;;;;;;5019222;28;20836;-60
2022/05/13 05:29:37;;;;;;;18.00;5.65;;;;;;;;;;5014861;28;20215;-61
2022/05/13 05:32:03;;;;;;;20.70;5.80;;;;;;;;;;5014707;28;20253;-60
2022/05/13 05:34:28;;;;;;;18.98;5.35;;;;;;;;;;5015990;28;20622;-61
2022/05/13 05:36:53;;;;;;;15.68;6.15;;;;;;;;;;5021536;28;20473;-61
2022/05/13 05:39:19;;;;;;;17.30;5.90;;;;;;;;;;5021690;28;20299;-61
2022/05/13 05:41:44;;;;;;;17.80;6.00;;;;;;;;;;5021917;28;20212;-62
2022/05/13 05:44:09;;;;;;;18.80;6.40;;;;;;;;;;5021617;28;20616;-61
2022/05/13 05:46:34;;;;;;;17.02;6.18;;;;;;;;;;5022369;28;20299;-61
2022/05/13 05:49:00;;;;;;;15.25;5.75;;;;;;;;;;5022779;28;20247;-62
2022/05/13 05:51:25;;;;;;;19.63;5.93;;;;;;;;;;5015094;28;20650;-62
2022/05/13 05:59:17;;;;;;;23.30;7.13;;;;;;;;;;5023643;28;20239;-61
2022/05/13 06:01:43;;;;;;;20.05;7.00;;;;;;;;;;5021160;28;20612;-62
2022/05/13 06:04:08;;;;;;;20.00;6.30;;;;;;;;;;5020999;28;20222;-62
2022/05/13 06:06:33;;;;;;;17.48;6.20;;;;;;;;;;5021590;28;20204;-62
2022/05/13 06:08:59;;;;;;;16.70;6.07;;;;;;;;;;5021301;28;20310;-62
2022/05/13 06:11:25;;;;;;;17.73;6.57;;;;;;;;;;5041002;28;20217;-62
2022/05/13 06:13:51;;;;;;;20.35;6.30;;;;;;;;;;5024742;28;20207;-62
2022/05/13 06:16:17;;;;;;;18.67;6.65;;;;;;;;;;5032792;28;20226;-62
2022/05/13 06:18:42;;;;;;;17.92;6.30;;;;;;;;;;5033160;28;20763;-62
2022/05/13 06:21:07;;;;;;;19.13;6.85;;;;;;;;;;5038098;28;20203;-62
2022/05/13 06:23:32;;;;;;;21.45;7.60;;;;;;;;;;5038050;28;20254;-62
2022/05/13 06:25:58;;;;;;;17.77;6.80;;;;;;;;;;5023006;28;20658;-62
2022/05/13 06:28:23;;;;;;;18.25;7.10;;;;;;;;;;5021569;28;20586;-62
2022/05/13 06:30:48;;;;;;;18.48;6.90;;;;;;;;;;5020856;28;20244;-62
2022/05/13 06:33:14;;;;;;;18.30;6.47;;;;;;;;;;5020609;28;20223;-61
2022/05/13 06:35:39;;;;;;;17.60;7.07;;;;;;;;;;5018953;28;20598;-61
2022/05/13 06:38:05;;;;;;;19.75;6.93;;;;;;;;;;5013767;28;20327;-61
2022/05/13 06:40:30;;;;;;;21.65;7.85;;;;;;;;;;5017647;28;20211;-61
2022/05/13 06:42:55;;;;;;;22.15;7.55;;;;;;;;;;5019997;28;20682;-62
2022/05/13 06:45:20;;;;;;;21.60;8.13;;;;;;;;;;5024674;28;20219;-61
2022/05/13 06:47:46;;;;;;;22.10;7.75;;;;;;;;;;5024827;28;20726;-61
2022/05/13 06:50:11;;;;;;;23.25;8.35;;;;;;;;;;5024982;28;20220;-62
2022/05/13 06:52:38;;;;;;;26.55;8.05;;;;;;;;;;5025010;28;20711;-61
2022/05/13 06:55:04;;;;;;;23.98;8.10;;;;;;;;;;5025346;28;20212;-62
2022/05/13 06:57:29;;;;;;;19.80;7.40;;;;;;;;;;5025012;28;20690;-61
2022/05/13 06:59:54;;;;;;;20.17;8.02;;;;;;;;;;5016052;28;20300;-61
2022/05/13 07:02:22;;;;;;;22.02;8.18;;;;;;;;;;5034303;28;20842;-62
2022/05/13 07:04:47;;;;;;;18.55;7.97;;;;;;;;;;5053816;28;20253;-61
2022/05/13 07:07:13;;;;;;;20.70;8.50;;;;;;;;;;5053520;28;20261;-61
2022/05/13 07:09:38;;;;;;;25.85;8.35;;;;;;;;;;5054888;28;20568;-61
2022/05/13 07:12:04;;;;;;;20.85;8.40;;;;;;;;;;5053860;28;20219;-61
2022/05/13 07:14:29;;;;;;;18.95;8.45;;;;;;;;;;5054190;28;20202;-61
2022/05/13 07:16:55;;;;;;;25.40;8.35;;;;;;;;;;5053950;28;20276;-59
2022/05/13 07:19:20;;;;;;;21.23;7.95;;;;;;;;;;5052957;28;20225;-59
2022/05/13 07:21:46;;;;;;;18.52;8.45;;;;;;;;;;5054110;28;20218;-61
2022/05/13 07:24:11;;;;;;;19.38;7.60;;;;;;;;;;5053995;28;20223;-61
2022/05/13 07:26:36;;;;;;;23.20;7.45;;;;;;;;;;5054045;28;20243;-62
2022/05/13 07:29:04;;;;;;;20.85;7.55;;;;;;;;;;5053752;28;20604;-61
2022/05/13 07:31:29;;;;;;;21.95;8.00;;;;;;;;;;5053780;28;20309;-60
2022/05/13 07:33:55;;;;;;;20.52;7.82;;;;;;;;;;5036440;28;20746;-60
2022/05/13 07:36:20;;;;;;;19.45;8.55;;;;;;;;;;5033510;28;20212;-61
2022/05/13 07:41:30;;;;;;;20.02;8.15;;;;;;;;;;5033778;28;20211;-60
2022/05/13 07:43:55;;;;;;;19.13;7.85;;;;;;;;;;5033829;28;20291;-60
2022/05/13 07:46:20;;;;;;;22.05;8.07;;;;;;;;;;5033346;28;20579;-60
2022/05/13 07:48:45;;;;;;;21.98;7.40;;;;;;;;;;5018811;28;20221;-61
2022/05/13 07:51:11;;;;;;;17.85;7.10;;;;;;;;;;5039553;28;20214;-61
2022/05/13 07:53:36;;;;;;;19.65;6.57;;;;;;;;;;5033707;28;20261;-60
2022/05/13 07:56:02;;;;;;;18.15;5.60;;;;;;;;;;5041768;28;20290;-60
2022/05/13 07:58:28;;;;;;;20.27;7.75;;;;;;;;;;5033779;28;20242;-60
2022/05/13 08:00:54;;;;;;;20.38;7.20;;;;;;;;;;5044856;28;20219;-61
2022/05/13 08:03:20;;;;;;;20.02;7.25;;;;;;;;;;5029132;28;20223;-61
2022/05/13 08:05:48;;;;;;;16.38;7.07;;;;;;;;;;5008086;28;20227;-60
2022/05/13 08:08:13;;;;;;;18.17;6.82;;;;;;;;;;4994407;28;20217;-61
2022/05/13 08:10:39;;;;;;;16.27;6.97;;;;;;;;;;4998068;28;20847;-60
2022/05/13 08:13:04;;;;;;;17.50;7.63;;;;;;;;;;4996142;28;20256;-60
2022/05/13 08:15:29;;;;;;;15.70;6.90;;;;;;;;;;4993435;28;20706;-61
2022/05/13 08:17:55;;;;;;;19.88;7.45;;;;;;;;;;4993653;28;20217;-60
2022/05/13 08:20:20;;;;;;;21.10;7.43;;;;;;;;;;4993430;28;20224;-61
2022/05/13 08:22:46;;;;;;;18.63;7.45;;;;;;;;;;4993988;28;20208;-60
2022/05/13 08:25:11;;;;;;;17.27;8.30;;;;;;;;;;4993658;28;20232;-61
2022/05/13 08:27:36;;;;;;;20.50;7.40;;;;;;;;;;4994442;28;20228;-60
2022/05/13 08:30:02;;;;;;;18.05;7.22;;;;;;;;;;5007767;28;20629;-61
2022/05/13 08:32:28;;;;;;;17.92;6.28;;;;;;;;;;5008623;28;20216;-60
2022/05/13 08:34:53;;;;;;;18.55;7.13;;;;;;;;;;5008815;28;20213;-61
2022/05/13 08:37:18;;;;;;;23.83;7.40;;;;;;;;;;5012648;28;20208;-61
2022/05/13 08:39:44;;;;;;;17.77;6.75;;;;;;;;;;5013494;28;20682;-61
2022/05/13 08:42:13;;;;;;;20.55;7.07;;;;;;;;;;5013060;28;20205;-61
2022/05/13 08:44:38;;;;;;;17.45;6.50;;;;;;;;;;5028069;28;20219;-62
2022/05/13 08:47:09;;;;;;;13.38;5.93;;;;;;;;;;5014453;28;20212;-62
2022/05/13 08:49:36;;;;;;;16.17;6.50;;;;;;;;;;5048031;28;20226;-61
2022/05/13 08:55:05;;;;;;;16.92;4.85;;;;;;;;;;5044062;28;20245;-61
2022/05/13 08:57:31;;;;;;;19.92;4.95;;;;;;;;;;5032200;28;20231;-61
2022/05/13 08:59:59;;;;;;;21.08;5.45;;;;;;;;;;5047674;28;20216;-61
2022/05/13 09:02:30;;;;;;;13.23;4.85;;;;;;;;;;5047056;28;20211;-61
2022/05/13 09:05:05;;;;;;;13.48;4.55;;;;;;;;;;5032162;28;20586;-61
2022/05/13 09:07:30;;;;;;;12.52;4.13;;;;;;;;;;5024424;28;20353;-62
2022/05/13 09:09:58;;;;;;;17.13;4.50;;;;;;;;;;5047859;28;20314;-62
2022/05/13 09:12:27;;;;;;;17.00;4.88;;;;;;;;;;5029080;28;20702;-63
2022/05/13 09:15:11;;;;;;;18.98;4.72;;;;;;;;;;5024757;28;20239;-63
2022/05/13 09:17:39;;;;;;;11.30;3.95;;;;;;;;;;5012373;28;20211;-62
2022/05/13 09:20:11;;;;;;;10.15;3.35;;;;;;;;;;5011714;28;20208;-63
2022/05/13 09:22:45;;;;;;;9.63;3.53;;;;;;;;;;5011585;28;20213;-62
2022/05/13 09:25:16;;;;;;;13.13;3.13;;;;;;;;;;4991560;28;20217;-63
2022/05/13 09:27:43;;;;;;;9.40;2.40;;;;;;;;;;4992744;28;20232;-63
2022/05/13 09:30:08;;;;;;;8.85;1.98;;;;;;;;;;4992461;28;20734;-63
2022/05/13 09:32:33;;;;;;;10.95;1.77;;;;;;;;;;4997208;28;20247;-63
2022/05/13 09:35:01;;;;;;;9.25;1.58;;;;;;;;;;5011821;28;20215;-62
2022/05/13 09:37:27;;;;;;;6.30;1.52;;;;;;;;;;5011448;28;20211;-62
2022/05/13 09:40:06;;;;;;;6.82;1.63;;;;;;;;;;5011689;28;20566;-63
2022/05/13 09:42:36;;;;;;;10.32;1.40;;;;;;;;;;5031407;28;20203;-63
2022/05/13 09:45:11;;;;;;;12.20;1.83;;;;;;;;;;5031116;28;20226;-63
2022/05/13 09:47:37;;;;;;;8.82;1.75;;;;;;;;;;5030657;28;20215;-63
2022/05/13 09:50:02;;;;;;;4.93;1.30;;;;;;;;;;5013243;28;20212;-62
2022/05/13 09:52:29;;;;;;;6.20;1.45;;;;;;;;;;5031462;28;20218;-63
2022/05/13 09:54:56;;;;;;;5.20;1.40;;;;;;;;;;5013156;28;20251;-63
2022/05/13 09:57:28;;;;;;;10.30;1.63;;;;;;;;;;4997240;28;20298;-63
2022/05/13 09:59:55;;;;;;;8.65;1.80;;;;;;;;;;5022137;28;20603;-63
2022/05/13 10:02:20;;;;;;;7.72;2.00;;;;;;;;;;5030292;28;20669;-63
2022/05/13 10:04:53;;;;;;;5.20;1.17;;;;;;;;;;5043324;28;20214;-63
2022/05/13 10:07:18;;;;;;;9.02;1.95;;;;;;;;;;5050161;28;20231;-63
2022/05/13 10:15:17;;;;;;;10.20;1.85;;;;;;;;;;5029307;28;20238;-63
2022/05/13 10:17:45;;;;;;;11.30;1.67;;;;;;;;;;5029853;28;20258;-63
2022/05/13 10:20:13;;;;;;;7.25;1.80;;;;;;;;;;5030865;28;20211;-63
2022/05/13 10:22:46;;;;;;;8.10;1.70;;;;;;;;;;5029655;28;20207;-63
2022/05/13 10:25:12;;;;;;;5.55;1.60;;;;;;;;;;5029319;28;20207;-63
2022/05/13 10:27:39;;;;;;;7.43;1.77;;;;;;;;;;5029807;28;20223;-63
2022/05/13 10:30:12;;;;;;;8.73;2.13;;;;;;;;;;5028851;28;20719;-63
2022/05/13 10:32:40;;;;;;;9.38;2.03;;;;;;;;;;5035614;28;20211;-63
2022/05/13 10:35:06;;;;;;;7.63;2.15;;;;;;;;;;5032978;28;20202;-63
2022/05/13 10:37:37;;;;;;;9.30;1.50;;;;;;;;;;5050308;28;20215;-63
2022/05/13 10:40:03;;;;;;;12.10;1.80;;;;;;;;;;5050351;28;20235;-62
2022/05/13 10:42:31;;;;;;;8.00;1.70;;;;;;;;;;5050325;28;20293;-63
2022/05/13 10:44:59;;;;;;;7.95;1.73;;;;;;;;;;5033139;28;20218;-63
2022/05/13 10:47:24;;;;;;;6.00;1.60;;;;;;;;;;5045446;28;20549;-63
2022/05/13 10:49:49;;;;;;;4.65;1.42;;;;;;;;;;5030575;28;20692;-63
2022/05/13 10:52:21;;;;;;;8.82;1.95;;;;;;;;;;5030220;28;20613;-63
2022/05/13 10:54:47;;;;;;;6.90;1.48;;;;;;;;;;5030704;28;20216;-63
2022/05/13 10:57:18;;;;;;;6.97;1.58;;;;;;;;;;5029988;28;20299;-63
2022/05/13 10:59:52;;;;;;;9.60;2.03;;;;;;;;;;5013062;28;20278;-62
2022/05/13 11:02:50;;;;;;;5.50;1.60;;;;;;;;;;5013230;28;20212;-63
2022/05/13 11:05:26;;;;;;;6.88;1.70;;;;;;;;;;5029533;28;20204;-63
2022/05/13 11:07:54;;;;;;;6.28;1.30;;;;;;;;;;5030330;28;20223;-63
2022/05/13 11:10:27;;;;;;;4.75;1.40;;;;;;;;;;5012474;28;20228;-63
2022/05/13 11:13:02;;;;;;;8.02;1.52;;;;;;;;;;5015195;28;20675;-63
2022/05/13 11:15:32;;;;;;;5.47;1.40;;;;;;;;;;5029154;28;20705;-63
2022/05/13 11:18:03;;;;;;;7.82;1.50;;;;;;;;;;5012767;28;20573;-63
2022/05/13 11:20:30;;;;;;;7.45;1.23;;;;;;;;;;5012494;28;20219;-63
2022/05/13 11:23:00;;;;;;;6.72;1.60;;;;;;;;;;5013214;28;20690;-64
2022/05/13 11:28:28;;;;;;;7.72;1.75;;;;;;;;;;5033544;28;20740;-63
2022/05/13 11:31:04;;;;;;;8.93;1.50;;;;;;;;;;5016705;28;20213;-63
2022/05/13 11:33:35;;;;;;;10.82;1.50;;;;;;;;;;5046460;28;20550;-63
2022/05/13 11:36:03;;;;;;;9.25;1.58;;;;;;;;;;5053961;28;20234;-63
2022/05/13 11:38:39;;;;;;;6.65;1.40;;;;;;;;;;5035167;28;20218;-63
2022/05/13 11:41:08;;;;;;;7.60;1.40;;;;;;;;;;5053257;28;20215;-64
2022/05/13 11:43:38;;;;;;;11.88;1.30;;;;;;;;;;5036814;28;20215;-63
2022/05/13 11:46:12;;;;;;;9.55;1.50;;;;;;;;;;5035387;28;20341;-63
2022/05/13 11:48:41;;;;;;;6.80;1.50;;;;;;;;;;5038332;28;20219;-63
2022/05/13 11:51:08;;;;;;;5.10;1.10;;;;;;;;;;5015784;28;20214;-63
2022/05/13 11:53:47;;;;;;;4.50;1.20;;;;;;;;;;5033556;28;20301;-63
2022/05/13 11:56:25;;;;;;;9.35;1.50;;;;;;;;;;5033203;28;20211;-63
2022/05/13 11:58:53;;;;;;;7.93;1.45;;;;;;;;;;5032149;28;20218;-63
2022/05/13 12:01:34;;;;;;;8.95;1.80;;;;;;;;;;4995403;28;20219;-63
2022/05/13 12:04:11;;;;;;;6.45;1.48;;;;;;;;;;5013875;28;20208;-63
2022/05/13 12:06:57;;;;;;;8.55;1.30;;;;;;;;;;5013141;28;20243;-63
2022/05/13 12:09:26;;;;;;;4.68;1.40;;;;;;;;;;5013138;28;20216;-63
2022/05/13 12:11:53;;;;;;;6.97;1.70;;;;;;;;;;5014012;28;20676;-63
2022/05/13 12:14:35;;;;;;;5.20;1.38;;;;;;;;;;4979596;28;20219;-63
2022/05/13 12:17:21;;;;;;;6.40;1.23;;;;;;;;;;4994137;28;20216;-63
2022/05/13 12:19:55;;;;;;;7.68;1.73;;;;;;;;;;5008088;28;20564;-63
2022/05/13 12:22:34;;;;;;;6.88;1.63;;;;;;;;;;4995237;28;20246;-63
2022/05/13 12:25:01;;;;;;;4.65;1.30;;;;;;;;;;5013034;28;20215;-63
2022/05/13 12:27:38;;;;;;;5.47;1.58;;;;;;;;;;4995953;28;20687;-63
2022/05/13 12:30:08;;;;;;;8.38;1.50;;;;;;;;;;5012471;28;20216;-63
2022/05/13 12:32:36;;;;;;;11.15;1.40;;;;;;;;;;5018522;28;20270;-63
2022/05/13 12:37:45;;;;;;;9.55;1.30;;;;;;;;;;5032185;28;20253;-64
2022/05/13 12:40:11;;;;;;;7.50;1.30;;;;;;;;;;5032614;28;20211;-63
2022/05/13 12:42:39;;;;;;;8.35;1.23;;;;;;;;;;5032717;28;20673;-64
2022/05/13 12:45:04;;;;;;;7.75;1.33;;;;;;;;;;5032537;28;20212;-63
2022/05/13 12:47:30;;;;;;;7.85;1.67;;;;;;;;;;5026772;28;20271;-63
2022/05/13 12:50:00;;;;;;;7.05;1.30;;;;;;;;;;5012540;28;20256;-64
2022/05/13 12:52:26;;;;;;;5.75;1.10;;;;;;;;;;5012492;28;20687;-63
2022/05/13 12:54:52;;;;;;;9.80;1.58;;;;;;;;;;5013211;28;20212;-63
2022/05/13 12:57:20;;;;;;;5.75;1.52;;;;;;;;;;5012005;28;20212;-63
2022/05/13 12:59:47;;;;;;;4.72;1.42;;;;;;;;;;5004296;28;20722;-63
2022/05/13 13:02:12;;;;;;;3.70;1.15;;;;;;;;;;5032087;28;20208;-63
2022/05/13 13:04:42;;;;;;;5.57;1.35;;;;;;;;;;5030908;28;20207;-64
2022/05/13 13:07:09;;;;;;;8.00;1.73;;;;;;;;;;5030617;28;20292;-64
2022/05/13 13:09:35;;;;;;;4.43;1.20;;;;;;;;;;5032598;28;20243;-63
2022/05/13 13:12:04;;;;;;;5.32;1.35;;;;;;;;;;5030722;28;20301;-63
2022/05/13 13:14:29;;;;;;;6.00;1.40;;;;;;;;;;5013738;28;20208;-63
2022/05/13 13:16:56;;;;;;;7.93;1.42;;;;;;;;;;5012206;28;20717;-63
2022/05/13 13:19:23;;;;;;;4.85;1.10;;;;;;;;;;5027214;28;20220;-64
2022/05/13 13:21:51;;;;;;;4.25;1.40;;;;;;;;;;5028073;28;20287;-63
2022/05/13 13:24:17;;;;;;;5.03;1.13;;;;;;;;;;5026961;28;20598;-63
2022/05/13 13:26:45;;;;;;;6.55;1.20;;;;;;;;;;5012308;28;20216;-63
2022/05/13 13:29:11;;;;;;;5.03;1.20;;;;;;;;;;5011932;28;20298;-63
2022/05/13 13:31:38;;;;;;;5.80;1.40;;;;;;;;;;5011830;28;20618;-63
2022/05/13 13:34:03;;;;;;;4.38;1.02;;;;;;;;;;5047479;28;20589;-63
2022/05/13 13:36:29;;;;;;;6.00;1.20;;;;;;;;;;5052164;28;20210;-64
2022/05/13 13:38:55;;;;;;;5.45;1.40;;;;;;;;;;5051484;28;20203;-63
2022/05/13 13:41:26;;;;;;;10.88;1.55;;;;;;;;;;5051184;28;20215;-63
2022/05/13 13:43:52;;;;;;;5.90;2.05;;;;;;;;;;5051703;28;20215;-64
2022/05/13 13:46:20;;;;;;;12.10;2.08;;;;;;;;;;5050516;28;20214;-63
2022/05/13 13:48:46;;;;;;;4.22;1.60;;;;;;;;;;5011290;28;20608;-64
2022/05/13 13:51:15;;;;;;;5.28;1.65;;;;;;;;;;5012004;28;20201;-63
2022/05/13 13:53:42;;;;;;;8.82;1.92;;;;;;;;;;4994047;28;20245;-64
2022/05/13 13:56:10;;;;;;;5.78;1.70;;;;;;;;;;5026235;28;20228;-63
2022/05/13 13:58:39;;;;;;;5.80;2.15;;;;;;;;;;5011544;28;20211;-64
2022/05/13 14:01:17;;;;;;;7.60;1.60;;;;;;;;;;5026120;28;20228;-63
2022/05/13 14:03:43;;;;;;;7.05;1.77;;;;;;;;;;5012001;28;20204;-63
2022/05/13 14:06:11;;;;;;;5.68;1.55;;;;;;;;;;5011455;28;20219;-63
2022/05/13 14:08:37;;;;;;;9.05;1.90;;;;;;;;;;5026598;28;20236;-63
2022/05/13 14:11:03;;;;;;;8.68;2.00;;;;;;;;;;5026325;28;20668;-63
2022/05/13 14:13:30;;;;;;;6.25;1.60;;;;;;;;;;5022861;28;20294;-63
2022/05/13 14:16:00;;;;;;;8.27;1.60;;;;;;;;;;5029231;28;20576;-63
2022/05/13 14:18:25;;;;;;;8.13;1.52;;;;;;;;;;5039573;28;20346;-63
2022/05/13 14:21:06;;;;;;;7.60;1.52;;;;;;;;;;5030961;28;20640;-63
2022/05/13 14:23:31;;;;;;;7.47;1.55;;;;;;;;;;5038212;28;20227;-64
2022/05/13 14:25:58;;;;;;;9.13;1.88;;;;;;;;;;5031072;28;20679;-64
2022/05/13 14:28:24;;;;;;;8.52;1.67;;;;;;;;;;5012184;28;20301;-63
2022/05/13 14:30:50;;;;;;;9.75;1.60;;;;;;;;;;5031338;28;20227;-63
2022/05/13 14:33:16;;;;;;;8.43;1.75;;;;;;;;;;5019972;28;20204;-63
2022/05/13 14:35:41;;;;;;;4.75;1.40;;;;;;;;;;5026364;28;20204;-63
2022/05/13 14:38:08;;;;;;;7.85;1.73;;;;;;;;;;5010709;28;20208;-63
2022/05/13 14:40:35;;;;;;;9.70;1.60;;;;;;;;;;5026599;28;20240;-64
2022/05/13 14:43:02;;;;;;;5.43;1.30;;;;;;;;;;5010277;28;20270;-63
2022/05/13 14:45:27;;;;;;;5.78;1.50;;;;;;;;;;5011288;28;20215;-63
2022/05/13 14:47:53;;;;;;;8.13;1.45;;;;;;;;;;5020511;28;20228;-63
2022/05/13 14:50:19;;;;;;;7.72;1.60;;;;;;;;;;5029956;28;20212;-64
2022/05/13 14:52:46;;;;;;;8.25;1.60;;;;;;;;;;5031064;28;20224;-64
2022/05/13 14:55:23;;;;;;;5.75;1.55;;;;;;;;;;5030395;28;20396;-64
2022/05/13 14:57:48;;;;;;;6.72;1.83;;;;;;;;;;5013044;28;20298;-63
2022/05/13 15:00:17;;;;;;;6.55;1.80;;;;;;;;;;5032729;28;20315;-63
2022/05/13 15:02:54;;;;;;;8.82;2.17;;;;;;;;;;5038187;28;20661;-62
2022/05/13 15:05:39;;;;;;;5.82;1.55;;;;;;;;;;5003183;28;20211;-64
2022/05/13 15:08:24;;;;;;;6.68;1.80;;;;;;;;;;5020558;28;20311;-63
2022/05/13 15:10:49;;;;;;;7.95;1.90;;;;;;;;;;5024350;28;20250;-63
2022/05/13 15:13:14;;;;;;;9.88;1.95;;;;;;;;;;5028317;28;20603;-63
2022/05/13 15:15:41;;;;;;;7.15;1.90;;;;;;;;;;5027932;28;20610;-62
2022/05/13 15:18:11;;;;;;;8.90;1.98;;;;;;;;;;5027946;28;20311;-64